Time;durP1;ratioP1;P1;durP2;ratioP2;P2;SDS_P1;SDS_P2;PMS_P1;PMS_P2;Temp;Humidity;BMP_temperature;BMP_pressure;BME280_temperature;BME280_humidity;BME280_pressure;Samples;Min_cycle;Max_cycle;Signal;HPM_P1;HPM_P2
2021/12/18 00:00:38;;;;;;;;;36.50;32.75;;;;;7.28;70.73;103269.66;5057952;28;45524;-94
2021/12/18 00:03:05;;;;;;;;;42.00;31.00;;;;;7.12;70.28;103246.28;5078167;27;45699;-93
2021/12/18 00:05:30;;;;;;;;;36.00;29.25;;;;;7.22;70.64;103271.63;5092167;27;47306;-94
2021/12/18 00:07:56;;;;;;;;;30.50;30.25;;;;;7.15;70.91;103254.44;5057244;28;45906;-93
2021/12/18 00:10:23;;;;;;;;;33.50;29.50;;;;;7.36;70.49;103293.94;5072849;27;45360;-93
2021/12/18 00:12:52;;;;;;;;;41.75;32.00;;;;;7.25;70.68;103265.03;5076935;27;45609;-95
2021/12/18 00:15:23;;;;;;;;;35.50;28.25;;;;;7.33;70.62;103286.72;5091967;27;48399;-94
2021/12/18 00:17:49;;;;;;;;;32.25;30.00;;;;;7.07;70.27;103239.66;5077094;27;45519;-94
2021/12/18 00:20:16;;;;;;;;;38.25;30.75;;;;;7.08;70.14;103245.06;5094200;27;45354;-93
2021/12/18 00:22:45;;;;;;;;;36.00;32.25;;;;;7.20;70.42;103275.78;5072123;27;45360;-95
2021/12/18 00:25:12;;;;;;;;;28.50;26.00;;;;;6.98;70.38;103235.41;5074841;27;48219;-93
2021/12/18 00:27:38;;;;;;;;;32.75;26.00;;;;;7.11;70.46;103255.81;5082662;27;45478;-93
2021/12/18 00:30:07;;;;;;;;;32.75;30.50;;;;;7.12;70.43;103270.72;5083614;27;45505;-95
2021/12/18 00:32:32;;;;;;;;;32.25;26.75;;;;;7.04;70.66;103249.06;5075615;27;45319;-93
2021/12/18 00:34:58;;;;;;;;;25.00;23.00;;;;;7.01;70.54;103242.63;5073213;27;48135;-94
2021/12/18 00:37:23;;;;;;;;;27.75;24.75;;;;;7.10;70.39;103260.88;5060571;28;45535;-94
2021/12/18 00:39:56;;;;;;;;;29.00;25.50;;;;;6.98;70.25;103250.13;5060433;27;45357;-93
2021/12/18 00:45:11;;;;;;;;;23.00;20.25;;;;;6.95;70.62;103249.81;5058197;28;46248;-94
2021/12/18 00:47:37;;;;;;;;;32.00;25.00;;;;;6.81;70.41;103228.44;5072897;27;45278;-94
2021/12/18 00:50:06;;;;;;;;;33.75;29.25;;;;;6.76;70.41;103233.22;5056031;28;45505;-94
2021/12/18 00:52:32;;;;;;;;;31.50;28.50;;;;;6.82;70.34;103245.97;5071161;27;45420;-94
2021/12/18 00:54:58;;;;;;;;;35.00;23.00;;;;;6.89;70.34;103257.94;5078853;27;47021;-94
2021/12/18 00:57:24;;;;;;;;;35.75;28.25;;;;;6.84;70.44;103249.66;5082275;27;45730;-94
2021/12/18 00:59:52;;;;;;;;;35.75;27.25;;;;;6.84;70.62;103243.50;5089953;27;45443;-93
2021/12/18 01:02:17;;;;;;;;;35.00;27.50;;;;;6.87;70.39;103256.88;5055920;28;45433;-93
2021/12/18 01:04:42;;;;;;;;;29.50;24.75;;;;;6.85;70.56;103254.13;5072545;27;46895;-93
2021/12/18 01:07:08;;;;;;;;;33.00;26.25;;;;;6.74;70.85;103232.16;5060780;27;45276;-93
2021/12/18 01:10:01;;;;;;;;;26.25;22.75;;;;;6.85;70.32;103253.19;5064352;28;45669;-94
2021/12/18 01:12:25;;;;;;;;;36.00;30.50;;;;;6.82;70.67;103252.13;5058063;27;45356;-93
2021/12/18 01:15:14;;;;;;;;;30.50;24.25;;;;;6.84;70.80;103256.56;5060144;28;48177;-93
2021/12/18 01:23:09;;;;;;;;;28.25;23.00;;;;;6.88;70.13;103274.41;5057590;28;45634;-94
2021/12/18 01:25:34;;;;;;;;;29.25;22.50;;;;;6.56;70.12;103220.75;5071979;27;47585;-95
2021/12/18 01:28:00;;;;;;;;;24.75;20.25;;;;;6.74;70.93;103255.63;5056149;28;45443;-94
2021/12/18 01:30:26;;;;;;;;;30.25;25.25;;;;;6.65;70.35;103263.44;5072598;27;45445;-93
2021/12/18 01:32:51;;;;;;;;;34.00;24.00;;;;;6.49;70.24;103234.88;5072360;27;45281;-94
2021/12/18 01:35:18;;;;;;;;;31.75;27.00;;;;;6.67;70.45;103268.84;5071568;27;48106;-94
2021/12/18 01:37:44;;;;;;;;;30.50;24.00;;;;;6.59;70.49;103253.31;5072444;27;45446;-95
2021/12/18 01:40:11;;;;;;;;;28.00;25.00;;;;;6.62;70.40;103259.59;5074503;27;45569;-94
2021/12/18 01:53:29;;;;;;;;;30.00;26.75;;;;;6.46;70.83;103261.56;5034417;28;45634;-94
2021/12/18 01:55:55;;;;;;;;;29.25;27.25;;;;;6.41;70.70;103267.06;5030398;28;47230;-94
2021/12/18 01:58:23;;;;;;;;;24.25;21.00;;;;;6.47;70.76;103279.06;5047857;28;45330;-93
2021/12/18 02:00:54;;;;;;;;;27.50;24.50;;;;;6.51;70.25;103284.59;5050737;28;45454;-94
2021/12/18 02:03:20;;;;;;;;;30.25;26.00;;;;;6.29;70.48;103244.16;5017480;28;45609;-94
2021/12/18 02:05:49;;;;;;;;;32.00;26.50;;;;;6.41;70.45;103277.50;5017144;28;47349;-93
2021/12/18 02:08:20;;;;;;;;;27.00;20.25;;;;;6.37;70.61;103273.66;5017161;28;45541;-95
2021/12/18 02:10:50;;;;;;;;;32.00;27.50;;;;;6.22;70.77;103250.44;5030794;28;45326;-94
2021/12/18 02:21:20;;;;;;;;;25.50;21.00;;;;;6.25;70.86;103263.78;5033756;28;45469;-94
2021/12/18 02:23:46;;;;;;;;;25.25;22.75;;;;;6.25;70.77;103265.47;5027665;28;45457;-94
2021/12/18 02:26:12;;;;;;;;;28.25;26.50;;;;;6.32;70.93;103275.78;5091797;27;48027;-94
2021/12/18 02:28:41;;;;;;;;;27.50;23.25;;;;;6.24;70.82;103268.84;5072462;27;45374;-95
2021/12/18 02:31:06;;;;;;;;;28.50;21.75;;;;;6.21;70.58;103269.44;5072112;27;45489;-93
2021/12/18 02:33:32;;;;;;;;;29.00;25.00;;;;;6.12;70.27;103261.59;5065121;27;45425;-95
2021/12/18 02:35:59;;;;;;;;;33.50;27.00;;;;;6.33;70.63;103293.28;5058184;27;48165;-94
2021/12/18 02:41:36;;;;;;;;;26.75;23.00;;;;;6.26;70.74;103270.84;5033242;28;45763;-93
2021/12/18 02:44:05;;;;;;;;;25.25;24.75;;;;;6.20;70.63;103267.63;4997416;28;45433;-94
2021/12/18 02:46:31;;;;;;;;;31.00;23.25;;;;;6.04;70.79;103245.09;5021327;28;47265;-94
2021/12/18 02:48:58;;;;;;;;;33.50;26.50;;;;;6.24;70.60;103266.22;5010757;28;46024;-93
2021/12/18 02:51:24;;;;;;;;;32.25;25.75;;;;;6.26;70.59;103270.84;5015982;28;45296;-94
2021/12/18 02:53:53;;;;;;;;;27.75;25.00;;;;;6.23;70.64;103262.72;5004416;28;45506;-94
2021/12/18 02:56:23;;;;;;;;;29.50;25.50;;;;;6.36;71.15;103280.56;5016028;28;47505;-94
2021/12/18 02:58:50;;;;;;;;;25.75;22.75;;;;;6.25;70.48;103257.66;5033599;28;45505;-93
2021/12/18 03:01:19;;;;;;;;;27.00;22.25;;;;;6.43;70.33;103294.22;5032544;28;45501;-94
2021/12/18 03:03:46;;;;;;;;;30.50;25.25;;;;;6.40;70.77;103281.78;5016642;28;45457;-94
2021/12/18 03:24:44;;;;;;;;;27.50;22.00;;;;;6.52;69.91;103286.44;5065597;27;45474;-94
2021/12/18 03:27:09;;;;;;;;;22.25;22.25;;;;;6.29;69.70;103249.38;5073034;28;47553;-93
2021/12/18 03:29:35;;;;;;;;;28.75;23.25;;;;;6.42;69.90;103272.44;5073147;27;45938;-93
2021/12/18 03:32:00;;;;;;;;;25.00;21.75;;;;;6.38;70.25;103272.91;5071834;27;45582;-94
2021/12/18 03:34:26;;;;;;;;;36.50;28.50;;;;;6.41;70.04;103267.06;5084272;27;45301;-93
2021/12/18 03:36:52;;;;;;;;;22.25;18.00;;;;;6.30;70.13;103246.00;5065058;27;48292;-94
2021/12/18 03:39:18;;;;;;;;;24.25;21.75;;;;;6.42;70.12;103263.69;5074165;27;45459;-94
2021/12/18 03:41:44;;;;;;;;;26.75;23.75;;;;;6.51;69.92;103266.31;5061296;27;45347;-93
2021/12/18 03:44:10;;;;;;;;;29.75;20.00;;;;;6.38;70.20;103238.97;5078759;27;45608;-94
2021/12/18 03:46:35;;;;;;;;;24.50;21.25;;;;;6.46;70.08;103247.59;5073952;27;47276;-94
2021/12/18 03:49:01;;;;;;;;;26.00;22.00;;;;;6.55;70.52;103261.56;5071674;27;45675;-93
2021/12/18 03:51:26;;;;;;;;;32.50;23.25;;;;;6.57;70.32;103253.94;5067835;27;45291;-94
2021/12/18 03:53:52;;;;;;;;;30.75;22.75;;;;;6.42;70.20;103222.84;5076035;27;45604;-95
2021/12/18 03:56:18;;;;;;;;;26.25;24.50;;;;;6.61;70.60;103248.25;5073829;27;46926;-94
2021/12/18 03:58:44;;;;;;;;;25.50;25.25;;;;;6.52;70.29;103218.59;5074055;27;45510;-94
2021/12/18 04:01:09;;;;;;;;;29.75;24.50;;;;;6.69;70.45;103246.41;5081501;27;45781;-95
2021/12/18 04:03:35;;;;;;;;;26.00;22.75;;;;;6.58;70.50;103220.13;5075635;27;45441;-93
2021/12/18 04:06:01;;;;;;;;;27.25;18.25;;;;;6.62;70.68;103217.84;5059737;27;47015;-93
2021/12/18 04:08:26;;;;;;;;;32.25;25.00;;;;;6.81;70.70;103252.88;5056335;28;45565;-94
2021/12/18 04:10:51;;;;;;;;;25.50;23.50;;;;;6.87;70.44;103256.88;5057205;28;45769;-93
2021/12/18 04:13:17;;;;;;;;;31.75;25.25;;;;;6.68;70.27;103235.03;5081699;27;45679;-94
2021/12/18 04:15:42;;;;;;;;;28.25;24.75;;;;;6.70;70.39;103230.00;5074015;27;47111;-94
2021/12/18 04:18:08;;;;;;;;;33.00;25.50;;;;;6.73;70.49;103235.50;5091477;27;45784;-94
2021/12/18 04:20:33;;;;;;;;;30.25;26.50;;;;;6.72;70.41;103228.47;5075099;27;45476;-94
2021/12/18 04:22:59;;;;;;;;;23.00;23.00;;;;;6.75;70.66;103222.63;5057470;28;45311;-94
2021/12/18 04:25:24;;;;;;;;;32.00;30.75;;;;;6.75;70.36;103222.63;5070903;27;46989;-94
2021/12/18 04:27:50;;;;;;;;;26.25;22.25;;;;;6.82;70.54;103227.69;5066277;27;45578;-95
2021/12/18 04:30:16;;;;;;;;;32.50;25.25;;;;;6.93;70.38;103247.97;5082291;27;45443;-93
2021/12/18 04:32:42;;;;;;;;;27.25;22.50;;;;;6.91;70.70;103249.50;5093537;27;45599;-93
2021/12/18 04:35:07;;;;;;;;;32.75;26.75;;;;;6.79;70.42;103210.03;5094412;27;45502;-94
2021/12/18 04:37:33;;;;;;;;;30.25;24.00;;;;;6.99;70.43;103246.75;5068898;27;45733;-94
2021/12/18 04:39:58;;;;;;;;;31.00;21.50;;;;;6.89;70.41;103235.38;5058204;28;45621;-93
2021/12/18 04:42:24;;;;;;;;;27.75;27.00;;;;;6.91;70.63;103235.53;5056968;28;45354;-94
2021/12/18 04:44:49;;;;;;;;;32.75;28.00;;;;;6.92;70.57;103235.69;5060421;27;46912;-94
2021/12/18 04:47:15;;;;;;;;;33.25;23.50;;;;;6.86;70.46;103221.06;5093870;27;45464;-94
2021/12/18 04:49:41;;;;;;;;;31.50;27.00;;;;;6.89;70.79;103229.22;5077296;27;45498;-94
2021/12/18 04:52:07;;;;;;;;;35.25;26.75;;;;;6.95;70.79;103221.09;5078243;27;45559;-93
2021/12/18 04:54:33;;;;;;;;;34.75;27.25;;;;;6.94;70.64;103222.78;5056328;28;48717;-94
2021/12/18 04:56:58;;;;;;;;;34.25;26.25;;;;;7.05;70.79;103244.75;5061541;27;45443;-94
2021/12/18 04:59:24;;;;;;;;;32.00;25.75;;;;;7.05;70.64;103252.59;5076457;27;45714;-95
2021/12/18 05:01:51;;;;;;;;;30.75;27.50;;;;;7.02;71.01;103250.59;5092685;27;45639;-93
2021/12/18 05:04:17;;;;;;;;;30.00;20.50;;;;;6.98;70.87;103229.25;5071926;28;48313;-94
2021/12/18 05:06:45;;;;;;;;;27.75;25.50;;;;;7.13;70.84;103250.75;5066453;27;45840;-94
2021/12/18 05:09:13;;;;;;;;;29.75;24.50;;;;;7.11;70.78;103250.56;5075121;27;45523;-94
2021/12/18 05:11:40;;;;;;;;;33.25;27.25;;;;;7.18;70.61;103259.03;5075989;27;45427;-94
2021/12/18 05:14:05;;;;;;;;;29.75;26.00;;;;;7.09;70.87;103241.66;5076717;27;47381;-93
2021/12/18 05:16:31;;;;;;;;;31.25;27.00;;;;;7.28;70.72;103264.41;5089692;27;46740;-94
2021/12/18 05:18:56;;;;;;;;;27.00;22.75;;;;;7.09;70.30;103228.63;5074271;27;45452;-95
2021/12/18 05:21:22;;;;;;;;;32.50;26.50;;;;;7.14;70.14;103236.91;5073266;28;45569;-94
2021/12/18 05:23:48;;;;;;;;;23.25;22.00;;;;;7.25;70.47;103253.66;5072390;27;47980;-94
2021/12/18 05:26:14;;;;;;;;;29.25;24.25;;;;;7.32;70.45;103269.16;5055341;28;45503;-95
2021/12/18 05:28:39;;;;;;;;;27.00;23.25;;;;;7.26;70.28;103253.84;5072742;27;45364;-94
2021/12/18 05:31:04;;;;;;;;;29.00;23.50;;;;;7.15;70.18;103236.16;5067776;27;45955;-93
2021/12/18 05:33:30;;;;;;;;;35.75;24.50;;;;;7.22;70.12;103246.44;5082763;27;47325;-94
2021/12/18 05:35:55;;;;;;;;;26.75;21.25;;;;;7.36;70.10;103268.72;5072701;27;45638;-94
2021/12/18 05:38:21;;;;;;;;;30.75;28.50;;;;;7.29;70.41;103260.13;5072211;27;45437;-94
2021/12/18 05:40:46;;;;;;;;;30.75;24.25;;;;;7.28;70.25;103253.97;5072498;27;45684;-94
2021/12/18 05:43:12;;;;;;;;;30.75;24.50;;;;;7.13;69.79;103237.69;5084893;27;46561;-93
2021/12/18 05:45:37;;;;;;;;;31.00;26.00;;;;;7.14;69.70;103230.00;5063268;28;45438;-94
2021/12/18 05:48:04;;;;;;;;;27.25;23.00;;;;;7.24;70.13;103250.13;5076464;27;45396;-93
2021/12/18 05:50:30;;;;;;;;;29.25;26.25;;;;;7.07;69.91;103232.78;5074028;27;45345;-94
2021/12/18 05:52:58;;;;;;;;;31.75;29.25;;;;;7.22;69.77;103253.34;5072149;27;48065;-95
2021/12/18 05:55:25;;;;;;;;;30.50;25.00;;;;;7.17;69.72;103242.44;5058489;27;45582;-94
2021/12/18 05:57:51;;;;;;;;;28.00;20.25;;;;;7.03;69.52;103222.78;5072475;27;45499;-94
2021/12/18 06:00:18;;;;;;;;;26.50;24.00;;;;;7.04;69.78;103227.22;5073201;27;45521;-95
2021/12/18 06:02:43;;;;;;;;;31.25;25.75;;;;;7.14;69.63;103244.75;5075384;27;48237;-94
2021/12/18 06:05:10;;;;;;;;;32.25;24.25;;;;;7.07;69.60;103232.78;5076287;27;45435;-94
2021/12/18 06:07:53;;;;;;;;;24.50;21.75;;;;;7.19;69.56;103261.78;5072589;27;45782;-94
2021/12/18 06:10:20;;;;;;;;;28.75;21.25;;;;;7.12;69.67;103249.81;5086748;27;45365;-93
2021/12/18 06:12:45;;;;;;;;;32.50;21.50;;;;;7.10;69.59;103248.75;5064351;27;47121;-94
2021/12/18 06:15:10;;;;;;;;;28.25;23.50;;;;;7.11;69.12;103253.19;5058813;27;45349;-94
2021/12/18 06:17:36;;;;;;;;;31.00;23.75;;;;;7.08;69.93;103244.16;5071726;27;45441;-94
2021/12/18 06:20:02;;;;;;;;;31.75;27.50;;;;;7.21;69.80;103260.28;5055530;28;45596;-93
2021/12/18 06:22:27;;;;;;;;;25.25;22.25;;;;;7.09;69.85;103235.53;5062819;27;47944;-95
2021/12/18 06:24:52;;;;;;;;;29.33;23.67;;;;;7.19;69.70;103250.44;5079165;27;45312;-93
2021/12/18 06:27:18;;;;;;;;;19.50;17.75;;;;;7.02;69.78;103218.31;5075634;27;45259;-95
2021/12/18 06:29:44;;;;;;;;;30.50;23.00;;;;;7.25;69.84;103259.81;5076543;27;45538;-94
2021/12/18 06:32:09;;;;;;;;;26.75;25.75;;;;;7.03;69.68;103230.63;5054878;28;47333;-94
2021/12/18 06:34:35;;;;;;;;;28.50;24.00;;;;;7.08;69.80;103225.88;5074397;27;45565;-94
2021/12/18 06:37:01;;;;;;;;;22.50;22.00;;;;;7.29;69.67;103270.56;5071132;27;45458;-94
2021/12/18 06:39:26;;;;;;;;;27.25;22.50;;;;;7.18;69.44;103252.13;5071713;27;45445;-94
2021/12/18 06:41:53;;;;;;;;;27.75;25.75;;;;;7.19;69.44;103259.19;5056905;27;48123;-95
2021/12/18 06:44:19;;;;;;;;;22.00;18.25;;;;;7.08;68.98;103245.06;5054726;28;45306;-94
2021/12/18 06:46:44;;;;;;;;;31.50;22.25;;;;;6.99;69.39;103236.28;5089471;27;45457;-95
2021/12/18 06:49:10;;;;;;;;;23.25;20.50;;;;;7.02;69.31;103261.03;5063719;27;45246;-95
2021/12/18 06:51:36;;;;;;;;;30.00;23.50;;;;;6.99;69.46;103258.13;5078715;27;47906;-94
2021/12/18 06:54:01;;;;;;;;;23.25;21.75;;;;;6.96;69.41;103256.91;5088077;27;45402;-94
2021/12/18 06:56:27;;;;;;;;;22.25;19.00;;;;;6.76;69.19;103237.50;5055332;28;45391;-93
2021/12/18 06:58:52;;;;;;;;;27.00;23.75;;;;;6.75;69.41;103239.19;5071738;28;45461;-94
2021/12/18 07:01:17;;;;;;;;;28.50;22.75;;;;;6.78;69.97;103254.25;5058002;27;47886;-94
2021/12/18 07:03:43;;;;;;;;;27.75;23.25;;;;;6.77;69.62;103249.81;5062607;28;45408;-94
2021/12/18 07:06:08;;;;;;;;;25.50;17.25;;;;;6.76;69.90;103246.25;5075104;27;45521;-93
2021/12/18 07:08:34;;;;;;;;;26.00;22.75;;;;;6.84;70.03;103274.84;5070814;27;45516;-94
2021/12/18 07:10:59;;;;;;;;;28.50;24.00;;;;;6.75;69.71;103269.63;5054108;28;48319;-95
2021/12/18 07:13:27;;;;;;;;;27.50;23.25;;;;;6.60;69.83;103251.59;5079686;27;45985;-91
2021/12/18 07:15:53;;;;;;;;;20.00;20.00;;;;;6.68;70.26;103265.44;5071045;27;45644;-93
2021/12/18 07:18:18;;;;;;;;;21.50;17.75;;;;;6.63;70.37;103271.88;5083115;27;46173;-94
2021/12/18 07:20:44;;;;;;;;;29.00;22.00;;;;;6.73;70.18;103299.84;5057256;27;47914;-94
2021/12/18 07:23:09;;;;;;;;;25.25;20.25;;;;;6.56;70.24;103266.03;5075989;27;45365;-95
2021/12/18 07:25:35;;;;;;;;;27.75;20.75;;;;;6.61;70.18;103281.25;5071374;27;45481;-93
2021/12/18 07:28:02;;;;;;;;;26.00;21.00;;;;;6.43;70.15;103256.03;5054037;28;45531;-94
2021/12/18 07:30:28;;;;;;;;;29.25;24.00;;;;;6.61;70.42;103286.47;5077285;27;46918;-95
2021/12/18 07:32:53;;;;;;;;;23.50;21.25;;;;;6.47;70.15;103266.00;5081285;27;45452;-91
2021/12/18 07:35:18;;;;;;;;;24.75;24.75;;;;;6.62;70.13;103297.06;5063371;28;45515;-86
2021/12/18 07:37:44;;;;;;;;;29.50;22.50;;;;;6.65;70.36;103309.53;5065085;27;45333;-86
2021/12/18 07:40:10;;;;;;;;;24.25;19.75;;;;;6.68;70.45;103310.75;5061635;27;46762;-86
2021/12/18 07:42:36;;;;;;;;;22.25;19.50;;;;;6.67;70.59;103306.31;5077751;27;45427;-85
2021/12/18 07:45:03;;;;;;;;;27.50;21.25;;;;;6.70;70.29;103309.19;5067888;27;45554;-85
2021/12/18 07:47:28;;;;;;;;;25.50;19.50;;;;;6.62;70.04;103296.16;5071054;27;45398;-86
2021/12/18 07:49:54;;;;;;;;;35.25;28.50;;;;;6.62;70.32;103290.94;5065467;27;48064;-86
2021/12/18 07:52:19;;;;;;;;;35.25;26.25;;;;;6.62;70.34;103294.47;5063089;28;45561;-85
2021/12/18 07:54:45;;;;;;;;;31.25;22.00;;;;;6.62;70.43;103294.47;5055851;27;45871;-88
2021/12/18 07:57:10;;;;;;;;;33.00;24.00;;;;;6.61;70.21;103295.22;5080534;27;45360;-86
2021/12/18 07:59:35;;;;;;;;;24.00;21.00;;;;;6.62;70.29;103297.06;5069030;27;46153;-86
2021/12/18 08:02:01;;;;;;;;;32.00;28.25;;;;;6.56;70.31;103294.75;5075622;27;52808;-86
2021/12/18 08:04:27;;;;;;;;;27.50;22.75;;;;;6.55;70.22;103298.09;5058417;27;45591;-86
2021/12/18 08:06:52;;;;;;;;;27.25;24.00;;;;;6.57;70.29;103298.28;5062764;27;45701;-87
2021/12/18 08:09:18;;;;;;;;;22.00;17.75;;;;;6.59;70.37;103307.19;5065126;27;46111;-86
2021/12/18 08:11:43;;;;;;;;;23.00;20.25;;;;;6.57;70.46;103298.28;5068522;28;45475;-86
2021/12/18 08:14:09;;;;;;;;;23.50;20.50;;;;;6.54;70.60;103291.06;5053677;27;45364;-86
2021/12/18 08:16:34;;;;;;;;;37.25;33.75;;;;;6.60;70.59;103298.59;5063595;27;45485;-85
2021/12/18 08:18:59;;;;;;;;;31.50;27.75;;;;;6.62;70.17;103304.91;5077144;27;47271;-87
2021/12/18 08:21:25;;;;;;;;;27.50;23.25;;;;;6.58;70.56;103297.50;5071927;27;45546;-87
2021/12/18 08:23:50;;;;;;;;;30.25;24.25;;;;;6.60;70.35;103298.59;5078097;27;45577;-87
2021/12/18 08:26:15;;;;;;;;;29.25;24.50;;;;;6.58;70.65;103301.03;5085458;27;45336;-85
2021/12/18 08:28:41;;;;;;;;;32.25;26.25;;;;;6.62;70.13;103299.69;5057015;27;45564;-85
2021/12/18 08:31:06;;;;;;;;;26.50;23.00;;;;;6.67;70.07;103303.69;5082238;27;45506;-85
2021/12/18 08:33:31;;;;;;;;;24.25;22.75;;;;;6.69;70.01;103310.00;5081230;27;45564;-83
2021/12/18 08:35:57;;;;;;;;;32.00;25.00;;;;;6.66;69.71;103312.28;5078693;27;45697;-83
2021/12/18 08:38:22;;;;;;;;;25.50;20.00;;;;;6.67;70.21;103314.13;5056239;28;48439;-84
2021/12/18 08:40:50;;;;;;;;;27.25;26.00;;;;;6.72;69.99;103318.91;5064371;27;45785;-85
2021/12/18 08:43:15;;;;;;;;;26.00;24.25;;;;;6.72;69.98;103312.00;5073157;27;46527;-84
2021/12/18 08:45:40;;;;;;;;;29.25;21.25;;;;;6.76;70.21;103314.13;5075578;27;45585;-84
2021/12/18 08:48:06;;;;;;;;;23.25;19.50;;;;;6.79;69.84;103318.75;5074136;27;47705;-83
2021/12/18 08:50:31;;;;;;;;;31.50;24.25;;;;;6.80;69.53;103318.91;5074604;27;45543;-84
2021/12/18 08:52:57;;;;;;;;;25.50;20.50;;;;;6.79;69.68;103318.75;5066287;28;45442;-84
2021/12/18 08:55:23;;;;;;;;;37.25;28.75;;;;;6.82;69.73;103317.41;5056977;27;45587;-84
2021/12/18 08:57:49;;;;;;;;;33.00;26.00;;;;;6.81;69.45;103317.22;5055578;28;46373;-85
2021/12/18 09:00:18;;;;;;;;;21.75;19.75;;;;;6.81;69.45;103312.00;5071694;27;45409;-84
2021/12/18 09:02:47;;;;;;;;;22.75;20.00;;;;;6.84;69.37;103308.78;5069541;28;45385;-84
2021/12/18 09:05:13;;;;;;;;;30.75;22.25;;;;;6.85;69.31;103311.56;5064449;28;45366;-84
2021/12/18 09:07:38;;;;;;;;;24.25;21.25;;;;;6.84;69.40;103312.31;5054997;28;45680;-83
2021/12/18 09:10:06;;;;;;;;;23.75;21.00;;;;;6.89;69.31;103311.09;5061841;28;45450;-83
2021/12/18 09:12:32;;;;;;;;;21.50;18.00;;;;;6.89;68.90;103308.50;5081327;27;45478;-84
2021/12/18 09:14:57;;;;;;;;;27.50;21.75;;;;;6.92;69.24;103311.41;5054773;28;45601;-86
2021/12/18 09:17:22;;;;;;;;;25.00;20.50;;;;;6.90;69.17;103299.91;5052460;28;47183;-84
2021/12/18 09:19:48;;;;;;;;;29.25;23.75;;;;;6.99;69.50;103301.59;5055659;28;45511;-86
2021/12/18 09:22:14;;;;;;;;;27.00;22.50;;;;;7.02;69.34;103299.28;5087232;27;45618;-83
2021/12/18 09:24:39;;;;;;;;;25.25;23.75;;;;;7.02;68.96;103289.78;5054645;28;45546;-84
2021/12/18 09:27:06;;;;;;;;;28.25;23.50;;;;;7.04;68.88;103295.13;5054649;28;47990;-84
2021/12/18 09:29:31;;;;;;;;;23.75;18.75;;;;;7.06;68.85;103288.38;5054320;28;45704;-83
2021/12/18 09:31:57;;;;;;;;;25.75;24.75;;;;;7.09;68.93;103280.84;5065574;27;45381;-84
2021/12/18 09:34:22;;;;;;;;;27.00;23.50;;;;;7.09;68.65;103278.25;5066541;27;45517;-84
2021/12/18 09:36:48;;;;;;;;;25.00;22.75;;;;;7.12;68.61;103275.94;5064274;27;46923;-84
2021/12/18 09:39:14;;;;;;;;;20.50;18.75;;;;;7.11;68.62;103271.47;5067130;27;45292;-84
2021/12/18 09:41:39;;;;;;;;;24.50;20.50;;;;;7.14;68.30;103282.25;5054668;28;49013;-84
2021/12/18 09:44:05;;;;;;;;;27.25;21.75;;;;;7.17;68.66;103285.91;5053033;28;45476;-84
2021/12/18 09:46:31;;;;;;;;;28.50;23.50;;;;;7.21;68.61;103293.31;5053730;28;46558;-84
2021/12/18 09:48:57;;;;;;;;;28.25;23.00;;;;;7.24;68.66;103291.91;5054580;28;45281;-83
2021/12/18 09:51:27;;;;;;;;;27.50;24.50;;;;;7.25;68.53;103288.56;5053947;28;45681;-84
2021/12/18 09:53:53;;;;;;;;;29.50;24.50;;;;;7.34;68.69;103296.41;5071140;27;45338;-84
2021/12/18 09:56:19;;;;;;;;;30.75;23.25;;;;;7.32;68.53;103278.72;5051372;28;47394;-86
2021/12/18 09:58:45;;;;;;;;;28.00;25.50;;;;;7.36;67.95;103284.41;5079217;27;45994;-84
2021/12/18 10:01:11;;;;;;;;;32.25;26.75;;;;;7.36;68.32;103280.88;5055720;28;46910;-84
2021/12/18 10:03:51;;;;;;;;;28.00;23.00;;;;;7.40;68.11;103284.69;5069134;28;45496;-84
2021/12/18 10:06:36;;;;;;;;;29.75;22.25;;;;;7.41;67.90;103284.84;5069048;28;48548;-84
2021/12/18 10:09:06;;;;;;;;;28.50;23.75;;;;;7.44;68.07;103289.47;5055535;28;45493;-84
2021/12/18 10:11:31;;;;;;;;;28.50;25.25;;;;;7.46;67.99;103287.94;5055853;27;45365;-84
2021/12/18 10:13:59;;;;;;;;;27.50;22.25;;;;;7.51;67.76;103285.75;5065751;28;45378;-86
2021/12/18 10:16:27;;;;;;;;;31.50;27.25;;;;;7.55;68.04;103283.59;5064728;28;48360;-84
2021/12/18 10:18:53;;;;;;;;;28.00;23.50;;;;;7.59;67.42;103275.31;5053959;28;45644;-84
2021/12/18 10:21:21;;;;;;;;;23.00;19.50;;;;;7.60;67.38;103271.91;5086409;27;45489;-84
2021/12/18 10:23:48;;;;;;;;;27.75;22.25;;;;;7.66;67.36;103282.06;5052913;28;45372;-84
2021/12/18 10:26:37;;;;;;;;;31.25;22.75;;;;;7.70;67.44;103284.22;5064114;28;47381;-84
2021/12/18 10:29:22;;;;;;;;;31.25;25.75;;;;;7.72;67.47;103279.13;5071959;27;45415;-85
2021/12/18 10:31:47;;;;;;;;;29.75;21.00;;;;;7.69;66.89;103264.06;5066750;27;45396;-84
2021/12/18 10:34:20;;;;;;;;;30.00;23.25;;;;;7.76;67.09;103267.25;5058054;27;50620;-86
2021/12/18 10:37:21;;;;;;;;;25.00;23.00;;;;;7.79;67.04;103268.50;5076186;27;47202;-84
2021/12/18 10:39:50;;;;;;;;;28.00;26.50;;;;;7.82;67.25;103265.25;5059178;28;45862;-84
2021/12/18 10:42:28;;;;;;;;;29.00;22.00;;;;;7.87;67.13;103265.69;5052787;28;45436;-84
2021/12/18 10:45:33;;;;;;;;;30.75;25.25;;;;;7.91;67.04;103265.25;5052228;28;46946;-84
2021/12/18 10:48:08;;;;;;;;;30.00;27.25;;;;;7.93;67.21;103258.47;5068840;27;47657;-84
2021/12/18 10:50:45;;;;;;;;;32.00;26.25;;;;;7.98;66.97;103249.38;5052110;28;45314;-84
2021/12/18 10:53:18;;;;;;;;;41.75;28.00;;;;;8.01;66.53;103243.50;5068716;28;45579;-84
2021/12/18 10:55:53;;;;;;;;;29.00;22.25;;;;;8.06;66.56;103239.66;5066552;28;45515;-84
2021/12/18 10:58:18;;;;;;;;;28.00;23.00;;;;;8.14;66.37;103238.66;5064257;28;47204;-84
2021/12/18 11:00:49;;;;;;;;;29.00;23.75;;;;;8.13;66.58;103234.22;5051589;28;45397;-84
2021/12/18 11:03:26;;;;;;;;;24.75;21.75;;;;;8.20;65.64;103233.09;5053630;28;45365;-84
2021/12/18 11:06:09;;;;;;;;;24.00;22.25;;;;;8.23;66.02;103240.31;5065692;28;49890;-84
2021/12/18 11:08:51;;;;;;;;;25.25;23.50;;;;;8.22;66.08;103225.41;5066989;28;46613;-85
2021/12/18 11:14:06;;;;;;;;;22.75;22.75;;;;;8.30;65.59;103228.75;5052534;28;45299;-85
2021/12/18 11:16:38;;;;;;;;;28.50;24.50;;;;;8.31;65.57;103227.97;5052707;28;45372;-85
2021/12/18 11:19:06;;;;;;;;;21.75;20.25;;;;;8.33;65.61;103222.09;5053370;28;46591;-84
2021/12/18 11:21:32;;;;;;;;;33.00;25.00;;;;;8.42;65.49;103222.06;5084623;27;45723;-86
2021/12/18 11:24:04;;;;;;;;;25.75;22.25;;;;;8.48;64.94;103224.31;5052598;28;45493;-84
2021/12/18 11:26:49;;;;;;;;;27.50;23.00;;;;;8.45;65.01;103221.44;5052515;28;45480;-84
2021/12/18 11:29:25;;;;;;;;;26.25;21.25;;;;;8.47;65.18;103217.25;5068289;28;45362;-84
2021/12/18 11:31:51;;;;;;;;;26.75;22.00;;;;;8.49;64.86;103219.25;5058315;28;45488;-84
2021/12/18 11:34:17;;;;;;;;;19.00;17.50;;;;;8.57;64.82;103219.03;5055429;27;45463;-84
2021/12/18 11:36:44;;;;;;;;;25.75;25.75;;;;;8.60;65.42;103216.75;5059208;28;45554;-85
2021/12/18 11:39:12;;;;;;;;;26.25;20.50;;;;;8.62;64.86;103214.25;5067797;27;47305;-85
2021/12/18 11:41:39;;;;;;;;;20.75;18.25;;;;;8.70;64.52;103221.16;5084084;27;45435;-84
2021/12/18 11:44:37;;;;;;;;;29.50;24.50;;;;;8.75;64.36;103218.94;5052628;28;45562;-87
2021/12/18 11:47:34;;;;;;;;;25.67;24.67;;;;;8.79;64.36;103213.22;5080894;27;45485;-87
2021/12/18 11:50:00;;;;;;;;;25.33;23.67;;;;;8.79;64.29;103205.34;5076822;27;45538;-86
2021/12/18 11:52:26;;;;;;;;;24.67;19.00;;;;;8.83;64.40;103205.81;5076708;27;45539;-86
2021/12/18 11:54:54;;;;;;;;;22.67;18.33;;;;;8.89;64.26;103213.28;5077543;27;45507;-85
2021/12/18 11:57:38;;;;;;;;;26.75;22.00;;;;;8.97;64.27;103207.84;5080374;27;45689;-85
2021/12/18 12:00:17;;;;;;;;;28.33;22.00;;;;;8.97;64.09;103193.03;5074021;27;47282;-85
2021/12/18 12:02:52;;;;;;;;;25.75;20.75;;;;;9.07;63.63;103207.00;5073953;27;45994;-84
2021/12/18 12:05:30;;;;;;;;;25.33;22.67;;;;;9.08;63.69;103203.56;5071973;27;45360;-85
2021/12/18 12:08:23;;;;;;;;;24.00;21.67;;;;;9.07;63.33;103192.16;5084147;27;45459;-84
2021/12/18 12:11:18;;;;;;;;;25.00;20.75;;;;;9.08;63.22;103193.09;5071176;27;46243;-83